Powell, Texas
Current Conditions -  °F | °C
As of 10:53 PM on Saturday 25 Oct 2014 (Local Time) from KCRS Reporting Station
Clear Clear  
Wind Chill: 21°   Ceiling: Unl
Heat Index: 21°   Visibility: 10mi
Dew Point: 16°   Wind: 7mph
Humidity: 75%   Direction: 180°S
Pressure: 30.08"   Gusts: NA
Location:  32.12°N, 96.32°W
Report Text: KCRS 260353Z AUTO 18006KT 10SM CLR 21/16 A3008 RMK AO2 SLP183 T02060161
Loading
Personal Weather Stations






























Interactive Weather Map
Tropical Storm Tracking
New forecast layout! Learn more

10-Day Weather Forecast

Advertisements
Track Severe Weather on mobile